Orange Wave — ELPX7 — position and weather

sailwx.info

Track history (hours):
 
Tides and Currents Weather Stations Pressure Air Temp Water Temp Dewpoint Dewpoint Depression Visibility Wind Speed Wind Dir Waves Ship Positions

Orange Wave

Last reported at 2016-Feb-08 06:00 UTC. Time now 2016-Feb-08 14:31 UTC.
Position S 26°36' W 033°42'.

Type: Cargo ship. MMSI: 636009894.

Wind from 999 at 5 knots

Barometer 1020.0 mb
Air temperature 26.0 ° C
Visibility: greater than 10.8 NM
Dewpoint 22.0 ° C

Date/timePositionNaut miles runAvg speedWind from/ knotsBaromVisibWave heightAir tempDewpointWater temp
2016-Feb-08 06:00S 26°36' W 033°42'25214.8 999 / 51020.010.8 26.022.0
2016-Feb-07 13:00S 25°48' W 038°18'11015.7 040 / 151025.910.8 5.030.524.428.4
2016-Feb-07 06:00S 25°30' W 040°18'19515.0 040 / 141018.010.8 27.024.0
2016-Feb-06 17:00S 24°48' W 043°48'12714.7 210 / 81024.3 5.4 0.528.224.726.2
2016-Feb-06 08:18S 24°24' W 046°06'1115.0
2016-Feb-06 07:33S 24°21' W 046°18'1413.9
2016-Feb-06 06:34S 24°08' W 046°23'7 7.4
2016-Feb-06 05:33S 24°01' W 046°21'4 0.5
2016-Feb-05 22:21S 23°59' W 046°17'0 0.0
2016-Feb-05 19:21S 23°59' W 046°17'0 0.0
2016-Feb-05 16:21S 23°59' W 046°17'0 0.0
2016-Feb-05 14:27S 23°59' W 046°17'0 0.0
2016-Feb-05 10:21S 23°59' W 046°17'0 0.0
2016-Feb-05 07:33S 23°59' W 046°17'0 0.0
2016-Feb-05 05:27S 23°59' W 046°17'0 0.0
2016-Feb-05 03:21S 23°59' W 046°17'0 0.0
2016-Feb-05 00:33S 23°59' W 046°17'0 0.0
2016-Feb-04 19:33S 23°59' W 046°17'0 0.0
2016-Feb-04 18:33S 23°59' W 046°17'0 0.0
2016-Feb-04 17:27S 23°59' W 046°17'0 0.0
2016-Feb-04 16:27S 23°59' W 046°17'0 0.0
2016-Feb-04 15:33S 23°59' W 046°17'0 0.0
2016-Feb-04 14:27S 23°59' W 046°17'0 0.0
2016-Feb-04 13:33S 23°59' W 046°17'19 1.5
2016-Feb-04 00:33S 24°17' W 046°22'3 3.4
2016-Feb-03 23:33S 24°21' W 046°21'2 1.7
2016-Feb-03 22:33S 24°22' W 046°20'1 1.5
2016-Feb-03 21:33S 24°23' W 046°19'1 0.9
2016-Feb-03 20:33S 24°24' W 046°19'1 0.9
2016-Feb-03 19:33S 24°25' W 046°19'1 0.9
2016-Feb-03 18:33S 24°26' W 046°19'1 0.9
2016-Feb-03 17:33S 24°27' W 046°20'1 0.9
2016-Feb-03 16:33S 24°28' W 046°20'1110.5
2016-Feb-03 15:29S 24°38' W 046°16'2 2.0
2016-Feb-03 14:19S 24°40' W 046°15'0 0.5
2016-Feb-03 13:33S 24°41' W 046°15'1 0.3
2016-Feb-03 11:32S 24°41' W 046°15'1 0.3
2016-Feb-03 09:04S 24°42' W 046°15'2 0.6
2016-Feb-03 05:19S 24°43' W 046°12'1 0.9
2016-Feb-03 04:30S 24°43' W 046°12'26913.2
2016-Feb-02 08:12S 23°24' W 041°30'1015.2
2016-Feb-02 07:33S 23°24' W 041°19'1515.0
2016-Feb-02 06:34S 23°24' W 041°03'1515.2
2016-Feb-02 05:33S 23°24' W 040°47'  
Track history (hours):
 
Tides and Currents Weather Stations Pressure Air Temp Water Temp Dewpoint Dewpoint Depression Visibility Wind Speed Wind Dir Waves Ship Positions

Orange Wave

Last reported at 2016-Feb-08 06:00 UTC. Time now 2016-Feb-08 14:31 UTC.
Position S 26°36' W 033°42'.

Type: Cargo ship. MMSI: 636009894.

Wind from 999 at 5 knots

Barometer 1020.0 mb
Air temperature 26.0 ° C
Visibility: greater than 10.8 NM
Dewpoint 22.0 ° C

Date/timePositionNaut miles runAvg speedWind from/ knotsBaromVisibWave heightAir tempDewpointWater temp
2016-Feb-08 06:00S 26°36' W 033°42'25214.8 999 / 51020.010.8 26.022.0
2016-Feb-07 13:00S 25°48' W 038°18'11015.7 040 / 151025.910.8 5.030.524.428.4
2016-Feb-07 06:00S 25°30' W 040°18'19515.0 040 / 141018.010.8 27.024.0
2016-Feb-06 17:00S 24°48' W 043°48'12714.7 210 / 81024.3 5.4 0.528.224.726.2
2016-Feb-06 08:18S 24°24' W 046°06'1115.0
2016-Feb-06 07:33S 24°21' W 046°18'1413.9
2016-Feb-06 06:34S 24°08' W 046°23'7 7.4
2016-Feb-06 05:33S 24°01' W 046°21'4 0.5
2016-Feb-05 22:21S 23°59' W 046°17'0 0.0
2016-Feb-05 19:21S 23°59' W 046°17'0 0.0
2016-Feb-05 16:21S 23°59' W 046°17'0 0.0
2016-Feb-05 14:27S 23°59' W 046°17'0 0.0
2016-Feb-05 10:21S 23°59' W 046°17'0 0.0
2016-Feb-05 07:33S 23°59' W 046°17'0 0.0
2016-Feb-05 05:27S 23°59' W 046°17'0 0.0
2016-Feb-05 03:21S 23°59' W 046°17'0 0.0
2016-Feb-05 00:33S 23°59' W 046°17'0 0.0
2016-Feb-04 19:33S 23°59' W 046°17'0 0.0
2016-Feb-04 18:33S 23°59' W 046°17'0 0.0
2016-Feb-04 17:27S 23°59' W 046°17'0 0.0
2016-Feb-04 16:27S 23°59' W 046°17'0 0.0
2016-Feb-04 15:33S 23°59' W 046°17'0 0.0
2016-Feb-04 14:27S 23°59' W 046°17'0 0.0
2016-Feb-04 13:33S 23°59' W 046°17'19 1.5
2016-Feb-04 00:33S 24°17' W 046°22'3 3.4
2016-Feb-03 23:33S 24°21' W 046°21'2 1.7
2016-Feb-03 22:33S 24°22' W 046°20'1 1.5
2016-Feb-03 21:33S 24°23' W 046°19'1 0.9
2016-Feb-03 20:33S 24°24' W 046°19'1 0.9
2016-Feb-03 19:33S 24°25' W 046°19'1 0.9
2016-Feb-03 18:33S 24°26' W 046°19'1 0.9
2016-Feb-03 17:33S 24°27' W 046°20'1 0.9
2016-Feb-03 16:33S 24°28' W 046°20'1110.5
2016-Feb-03 15:29S 24°38' W 046°16'2 2.0
2016-Feb-03 14:19S 24°40' W 046°15'0 0.5
2016-Feb-03 13:33S 24°41' W 046°15'1 0.3
2016-Feb-03 11:32S 24°41' W 046°15'1 0.3
2016-Feb-03 09:04S 24°42' W 046°15'2 0.6
2016-Feb-03 05:19S 24°43' W 046°12'1 0.9
2016-Feb-03 04:30S 24°43' W 046°12'26913.2
2016-Feb-02 08:12S 23°24' W 041°30'1015.2
2016-Feb-02 07:33S 23°24' W 041°19'1515.0
2016-Feb-02 06:34S 23°24' W 041°03'1515.2
2016-Feb-02 05:33S 23°24' W 040°47'  

Dump ship's entire track history